Time;durP1;ratioP1;P1;durP2;ratioP2;P2;SDS_P1;SDS_P2;PMS_P1;PMS_P2;Temp;Humidity;BMP_temperature;BMP_pressure;BME280_temperature;BME280_humidity;BME280_pressure;Samples;Min_cycle;Max_cycle;Signal;HPM_P1;HPM_P2
2021/05/24 00:00:47;;;;;;;0.50;0.40;;;11.90;99.90;;;;;;5013930;28;20194;-78
2021/05/24 00:03:13;;;;;;;0.50;0.40;;;11.90;99.90;;;;;;5014260;28;20207;-78
2021/05/24 00:05:40;;;;;;;0.70;0.50;;;11.90;99.90;;;;;;5014540;28;20577;-79
2021/05/24 00:08:07;;;;;;;0.50;0.40;;;11.90;99.90;;;;;;5023509;28;20211;-79
2021/05/24 00:10:37;;;;;;;0.50;0.40;;;11.90;99.90;;;;;;5033952;28;20272;-78
2021/05/24 00:13:07;;;;;;;0.50;0.40;;;11.90;99.90;;;;;;5034159;28;20219;-78
2021/05/24 00:15:36;;;;;;;0.60;0.50;;;11.90;99.90;;;;;;5033247;28;20627;-77
2021/05/24 00:18:03;;;;;;;0.50;0.40;;;11.90;99.90;;;;;;5032894;28;20417;-78
2021/05/24 00:20:33;;;;;;;0.50;0.40;;;11.90;99.90;;;;;;5033715;28;20202;-79
2021/05/24 00:22:59;;;;;;;0.50;0.40;;;11.90;99.90;;;;;;5033546;28;20652;-78
2021/05/24 00:25:27;;;;;;;0.82;0.82;;;11.90;99.90;;;;;;5033709;28;20665;-78
2021/05/24 00:27:53;;;;;;;0.50;0.40;;;11.90;99.90;;;;;;5033134;28;20224;-78
2021/05/24 00:30:20;;;;;;;0.50;0.40;;;11.90;99.90;;;;;;5032896;28;20214;-79
2021/05/24 00:32:47;;;;;;;0.65;0.60;;;11.90;99.90;;;;;;5033473;28;20595;-78
2021/05/24 00:35:14;;;;;;;0.50;0.40;;;11.90;99.90;;;;;;5033586;28;20206;-78
2021/05/24 00:37:40;;;;;;;0.50;0.40;;;11.90;99.90;;;;;;5027592;28;20280;-78
2021/05/24 00:40:09;;;;;;;0.50;0.40;;;11.90;99.90;;;;;;5030044;28;20189;-78
2021/05/24 00:42:36;;;;;;;0.60;0.50;;;11.90;99.90;;;;;;5033121;28;20210;-78
2021/05/24 00:45:06;;;;;;;0.50;0.40;;;11.90;99.90;;;;;;5033369;28;20240;-79
2021/05/24 00:47:33;;;;;;;0.50;0.40;;;11.90;99.90;;;;;;5033080;28;20722;-79
2021/05/24 00:49:59;;;;;;;0.50;0.40;;;11.80;99.90;;;;;;5033053;28;20221;-79
2021/05/24 00:52:26;;;;;;;0.50;0.40;;;11.80;99.90;;;;;;5032748;28;20208;-77
2021/05/24 00:54:52;;;;;;;0.88;0.88;;;11.80;99.90;;;;;;5032527;28;20600;-78
2021/05/24 00:57:19;;;;;;;0.50;0.40;;;11.80;99.90;;;;;;5032956;28;20214;-78
2021/05/24 00:59:45;;;;;;;0.50;0.50;;;11.80;99.90;;;;;;5032581;28;20205;-77
2021/05/24 01:02:11;;;;;;;0.50;0.40;;;11.80;99.90;;;;;;5033171;28;20202;-78
2021/05/24 01:04:37;;;;;;;0.60;0.50;;;11.80;99.90;;;;;;5032305;28;20679;-79
2021/05/24 01:07:05;;;;;;;0.50;0.40;;;11.80;99.90;;;;;;5031879;28;20226;-80
2021/05/24 01:09:33;;;;;;;0.50;0.40;;;11.80;99.90;;;;;;5025173;28;20686;-79
2021/05/24 01:12:00;;;;;;;0.50;0.40;;;11.80;99.90;;;;;;5033012;28;20580;-78
2021/05/24 01:14:26;;;;;;;0.50;0.40;;;11.90;99.90;;;;;;5032506;28;20600;-78
2021/05/24 01:16:54;;;;;;;0.60;0.60;;;11.90;99.90;;;;;;5032285;28;20315;-80
2021/05/24 01:19:22;;;;;;;0.50;0.40;;;12.00;99.90;;;;;;5032336;28;20206;-78
2021/05/24 01:21:49;;;;;;;0.50;0.40;;;12.10;99.90;;;;;;5032387;28;20187;-78
2021/05/24 01:24:18;;;;;;;0.50;0.40;;;12.10;99.90;;;;;;5032838;28;20198;-78
2021/05/24 01:26:44;;;;;;;0.50;0.40;;;12.20;99.90;;;;;;5031947;28;20252;-75
2021/05/24 01:29:11;;;;;;;0.50;0.40;;;12.20;99.90;;;;;;5032781;28;20202;-78
2021/05/24 01:31:38;;;;;;;0.50;0.40;;;12.20;99.90;;;;;;5032382;28;20223;-80
2021/05/24 01:34:04;;;;;;;0.50;0.40;;;12.30;99.90;;;;;;5032532;28;20207;-77
2021/05/24 01:36:32;;;;;;;0.50;0.40;;;12.20;99.90;;;;;;5031368;28;20230;-78
2021/05/24 01:39:00;;;;;;;0.50;0.40;;;12.20;99.90;;;;;;5024949;28;20202;-79
2021/05/24 01:41:26;;;;;;;0.50;0.40;;;12.30;99.90;;;;;;5032747;28;20565;-79
2021/05/24 01:43:52;;;;;;;0.50;0.40;;;12.30;99.90;;;;;;5033071;28;20246;-80
2021/05/24 01:46:18;;;;;;;0.50;0.40;;;12.30;99.90;;;;;;5032342;28;20218;-78
2021/05/24 01:48:45;;;;;;;0.50;0.40;;;12.30;99.90;;;;;;5032356;28;20202;-78
2021/05/24 01:51:11;;;;;;;0.50;0.40;;;12.30;99.90;;;;;;5031993;28;20226;-80
2021/05/24 01:53:38;;;;;;;0.50;0.40;;;12.40;99.90;;;;;;5032610;28;20195;-79
2021/05/24 01:56:06;;;;;;;0.50;0.40;;;12.40;99.90;;;;;;5032362;28;20215;-78
2021/05/24 01:58:32;;;;;;;0.50;0.40;;;12.40;99.90;;;;;;5031460;28;20196;-78
2021/05/24 02:01:04;;;;;;;0.50;0.40;;;12.40;99.90;;;;;;5033524;28;20198;-78
2021/05/24 02:03:30;;;;;;;0.50;0.40;;;12.40;99.90;;;;;;5035936;28;20195;-78
2021/05/24 02:05:57;;;;;;;0.50;0.50;;;12.40;99.90;;;;;;5035905;28;20711;-78
2021/05/24 02:08:23;;;;;;;0.50;0.50;;;12.40;99.90;;;;;;5027228;28;20568;-78
2021/05/24 02:10:49;;;;;;;0.50;0.40;;;12.40;99.90;;;;;;5035771;28;20211;-78
2021/05/24 02:13:16;;;;;;;0.50;0.40;;;12.40;99.90;;;;;;5036371;28;20207;-78
2021/05/24 02:15:43;;;;;;;0.80;0.65;;;12.40;99.90;;;;;;5035821;28;20199;-78
2021/05/24 02:18:09;;;;;;;0.50;0.40;;;12.30;99.90;;;;;;5036107;28;20203;-78
2021/05/24 02:20:36;;;;;;;0.50;0.40;;;12.30;99.90;;;;;;5036158;28;20213;-77
2021/05/24 02:23:04;;;;;;;0.50;0.40;;;12.30;99.90;;;;;;5035062;28;20202;-78
2021/05/24 02:25:30;;;;;;;0.70;0.70;;;12.30;99.90;;;;;;5035593;28;20224;-78
2021/05/24 02:27:57;;;;;;;0.50;0.40;;;12.30;99.90;;;;;;5036116;28;20651;-80
2021/05/24 02:30:27;;;;;;;0.50;0.40;;;12.30;99.90;;;;;;5035805;28;20218;-77
2021/05/24 02:32:53;;;;;;;0.50;0.40;;;12.30;99.90;;;;;;5036123;28;20229;-78
2021/05/24 02:35:22;;;;;;;0.50;0.40;;;12.30;99.90;;;;;;5035910;28;20199;-79
2021/05/24 02:37:48;;;;;;;0.50;0.40;;;12.30;99.90;;;;;;5028773;28;20219;-79
2021/05/24 02:40:17;;;;;;;0.50;0.40;;;12.30;99.90;;;;;;5033567;28;20194;-79
2021/05/24 02:42:43;;;;;;;0.73;0.73;;;12.30;99.90;;;;;;5036554;28;20513;-74
2021/05/24 02:45:12;;;;;;;2.15;1.13;;;12.30;99.90;;;;;;5035607;28;20195;-78
2021/05/24 02:47:39;;;;;;;0.50;0.40;;;12.30;99.90;;;;;;5035229;28;20229;-79
2021/05/24 02:50:08;;;;;;;0.70;0.40;;;12.30;99.90;;;;;;5035213;28;20207;-78
2021/05/24 02:52:34;;;;;;;0.50;0.40;;;12.30;99.90;;;;;;5035349;28;20196;-78
2021/05/24 02:55:01;;;;;;;0.50;0.40;;;12.40;99.90;;;;;;5035692;28;20270;-77
2021/05/24 02:57:27;;;;;;;0.60;0.50;;;12.40;99.90;;;;;;5034856;28;20219;-78
2021/05/24 02:59:53;;;;;;;0.50;0.40;;;12.40;99.90;;;;;;5034971;28;20204;-79
2021/05/24 03:02:25;;;;;;;0.50;0.40;;;12.40;99.90;;;;;;5035259;28;20191;-79
2021/05/24 03:04:52;;;;;;;0.50;0.40;;;12.40;99.90;;;;;;5035157;28;20200;-79
2021/05/24 03:07:19;;;;;;;0.50;0.40;;;12.50;99.90;;;;;;5032085;28;20219;-78
2021/05/24 03:09:45;;;;;;;0.50;0.40;;;12.50;99.90;;;;;;5029123;28;20257;-78
2021/05/24 03:12:12;;;;;;;0.50;0.40;;;12.50;99.90;;;;;;5034278;28;20691;-79
2021/05/24 03:14:38;;;;;;;0.50;0.40;;;12.50;99.90;;;;;;5034771;28;20199;-79
2021/05/24 03:17:04;;;;;;;0.50;0.50;;;12.60;99.90;;;;;;5034298;28;20720;-79
2021/05/24 03:19:31;;;;;;;0.50;0.40;;;12.60;99.90;;;;;;5034348;28;20199;-78
2021/05/24 03:21:58;;;;;;;0.50;0.40;;;12.60;99.90;;;;;;5034419;28;20221;-78
2021/05/24 03:24:24;;;;;;;0.50;0.40;;;12.60;99.90;;;;;;5035185;28;20195;-78
2021/05/24 03:26:50;;;;;;;0.50;0.40;;;12.60;99.90;;;;;;5034942;28;20230;-78
2021/05/24 03:29:17;;;;;;;0.50;0.40;;;12.60;99.90;;;;;;5034707;28;20596;-78
2021/05/24 03:31:43;;;;;;;0.57;0.45;;;12.60;99.90;;;;;;5034334;28;20238;-77
2021/05/24 03:34:09;;;;;;;0.50;0.40;;;12.60;99.90;;;;;;5034657;28;20205;-79
2021/05/24 03:36:35;;;;;;;0.50;0.40;;;12.60;99.90;;;;;;5033517;28;20223;-76
2021/05/24 03:39:04;;;;;;;0.50;0.40;;;12.70;99.90;;;;;;5025946;28;20242;-78
2021/05/24 03:41:30;;;;;;;0.50;0.40;;;12.70;99.90;;;;;;5034396;28;20187;-78
2021/05/24 03:43:56;;;;;;;0.50;0.40;;;12.70;99.90;;;;;;5033646;28;20266;-77
2021/05/24 03:46:23;;;;;;;0.50;0.40;;;12.70;99.90;;;;;;5033656;28;20687;-77
2021/05/24 03:48:49;;;;;;;0.50;0.40;;;12.70;99.90;;;;;;5033775;28;20438;-79
2021/05/24 03:51:15;;;;;;;0.50;0.40;;;12.70;99.90;;;;;;5033862;28;20558;-79
2021/05/24 03:53:41;;;;;;;0.50;0.40;;;12.70;99.90;;;;;;5033727;28;20203;-79
2021/05/24 03:56:08;;;;;;;0.50;0.40;;;12.80;99.90;;;;;;5033369;28;20214;-82
2021/05/24 03:58:35;;;;;;;0.50;0.40;;;12.80;99.90;;;;;;5033624;28;20199;-80
2021/05/24 04:01:01;;;;;;;0.55;0.50;;;12.80;99.90;;;;;;5033496;28;20218;-80
2021/05/24 04:03:27;;;;;;;0.50;0.40;;;12.80;99.90;;;;;;5033495;28;20199;-80
2021/05/24 04:05:59;;;;;;;0.50;0.40;;;12.90;99.90;;;;;;5033033;28;20668;-80
2021/05/24 04:08:30;;;;;;;0.50;0.40;;;12.90;99.90;;;;;;5024641;28;20199;-79
2021/05/24 04:10:58;;;;;;;0.50;0.40;;;12.90;99.90;;;;;;5033867;28;20204;-79
2021/05/24 04:13:25;;;;;;;0.50;0.38;;;12.90;99.90;;;;;;5033049;28;20250;-78
2021/05/24 04:15:53;;;;;;;0.50;0.40;;;12.90;99.90;;;;;;5033037;28;20723;-78
2021/05/24 04:18:21;;;;;;;0.50;0.40;;;13.00;99.90;;;;;;5032913;28;20290;-79
2021/05/24 04:20:47;;;;;;;0.50;0.40;;;13.00;99.90;;;;;;5033586;28;20214;-80
2021/05/24 04:23:14;;;;;;;0.90;0.80;;;13.00;99.90;;;;;;5032441;28;20198;-79
2021/05/24 04:25:41;;;;;;;0.50;0.30;;;12.90;99.90;;;;;;5033833;28;20203;-78
2021/05/24 04:28:07;;;;;;;0.50;0.40;;;13.00;99.90;;;;;;5033491;28;20195;-78
2021/05/24 04:30:34;;;;;;;0.50;0.38;;;13.00;99.90;;;;;;5033642;28;20218;-78
2021/05/24 04:33:00;;;;;;;0.50;0.38;;;13.10;99.90;;;;;;5033004;28;20198;-78
2021/05/24 04:35:27;;;;;;;0.50;0.30;;;13.10;99.90;;;;;;5033775;28;20199;-77
2021/05/24 04:37:53;;;;;;;0.50;0.50;;;13.10;99.90;;;;;;5025885;28;20223;-78
2021/05/24 04:40:19;;;;;;;0.50;0.40;;;13.00;99.90;;;;;;5032329;28;20191;-78
2021/05/24 04:42:46;;;;;;;0.50;0.40;;;13.00;99.90;;;;;;5033038;28;20210;-75
2021/05/24 04:45:13;;;;;;;0.50;0.40;;;13.10;99.90;;;;;;5033241;28;20202;-78
2021/05/24 04:47:41;;;;;;;0.50;0.40;;;13.10;99.90;;;;;;5033193;28;20615;-77
2021/05/24 04:50:09;;;;;;;0.50;0.40;;;13.10;99.90;;;;;;5033682;28;20607;-77
2021/05/24 04:52:35;;;;;;;0.50;0.40;;;13.20;99.90;;;;;;5032239;28;20215;-78
2021/05/24 04:55:03;;;;;;;0.50;0.40;;;13.20;99.90;;;;;;5033552;28;20195;-78
2021/05/24 04:57:29;;;;;;;0.50;0.40;;;13.20;99.90;;;;;;5032928;28;20219;-79
2021/05/24 04:59:55;;;;;;;0.50;0.40;;;13.30;99.90;;;;;;5032772;28;20438;-78
2021/05/24 05:02:21;;;;;;;0.50;0.40;;;13.30;99.90;;;;;;5033436;28;20200;-79
2021/05/24 05:04:48;;;;;;;0.50;0.40;;;13.40;99.90;;;;;;5032788;28;20534;-74
2021/05/24 05:07:14;;;;;;;0.50;0.40;;;13.40;99.90;;;;;;5030242;28;20211;-78
2021/05/24 05:09:41;;;;;;;0.50;0.40;;;13.50;99.90;;;;;;5025751;28;20206;-75
2021/05/24 05:12:07;;;;;;;0.98;0.80;;;13.60;99.90;;;;;;5032657;28;20558;-78
2021/05/24 05:14:33;;;;;;;0.50;0.40;;;13.60;99.90;;;;;;5032353;28;20195;-80
2021/05/24 05:17:00;;;;;;;0.50;0.40;;;13.60;99.90;;;;;;5032279;28;20458;-81
2021/05/24 05:19:26;;;;;;;0.50;0.40;;;13.60;99.90;;;;;;5031845;28;20703;-78
2021/05/24 05:21:53;;;;;;;0.50;0.40;;;13.70;99.90;;;;;;5032525;28;20202;-78
2021/05/24 05:24:20;;;;;;;0.50;0.40;;;13.80;99.90;;;;;;5032519;28;20950;-79
2021/05/24 05:26:46;;;;;;;0.50;0.40;;;13.90;99.90;;;;;;5032221;28;20223;-79
2021/05/24 05:29:12;;;;;;;0.50;0.40;;;14.10;99.90;;;;;;5032472;28;20199;-79
2021/05/24 05:31:39;;;;;;;0.73;0.65;;;14.20;99.90;;;;;;5032476;28;20562;-80
2021/05/24 05:34:05;;;;;;;0.60;0.60;;;14.20;99.90;;;;;;5032199;28;20199;-78
2021/05/24 05:36:32;;;;;;;0.70;0.70;;;14.20;99.90;;;;;;5036045;28;20250;-79
2021/05/24 05:38:59;;;;;;;0.50;0.40;;;14.10;99.90;;;;;;5038033;22;20514;-79
2021/05/24 05:41:25;;;;;;;0.50;0.40;;;14.20;99.90;;;;;;5023949;28;20215;-79
2021/05/24 05:43:52;;;;;;;0.50;0.40;;;14.20;99.90;;;;;;5038134;28;20191;-79
2021/05/24 05:46:18;;;;;;;0.50;0.40;;;14.10;99.90;;;;;;5041578;28;20236;-77
2021/05/24 05:48:44;;;;;;;0.50;0.40;;;14.20;99.90;;;;;;5024917;28;20466;-79
2021/05/24 05:51:10;;;;;;;0.50;0.40;;;14.30;99.90;;;;;;5023666;28;20680;-78
2021/05/24 05:53:37;;;;;;;0.85;0.50;;;14.30;99.90;;;;;;5023380;28;20203;-77
2021/05/24 05:56:04;;;;;;;0.50;0.40;;;14.40;99.90;;;;;;5027501;28;20196;-78
2021/05/24 05:58:31;;;;;;;0.50;0.40;;;14.60;99.90;;;;;;5028194;28;20220;-78
2021/05/24 06:01:01;;;;;;;0.60;0.60;;;14.80;99.90;;;;;;5030628;28;20437;-79
2021/05/24 06:03:28;;;;;;;0.57;0.50;;;15.00;99.90;;;;;;5031960;28;20427;-78
2021/05/24 06:05:54;;;;;;;0.50;0.40;;;15.10;99.90;;;;;;5030746;28;20443;-76
2021/05/24 06:08:20;;;;;;;0.60;0.43;;;15.30;99.90;;;;;;5033465;28;20466;-78
2021/05/24 06:10:46;;;;;;;0.50;0.40;;;15.90;99.90;;;;;;5046232;28;20502;-75
2021/05/24 06:13:13;;;;;;;1.97;1.80;;;16.50;99.90;;;;;;5045954;28;20476;-79
2021/05/24 06:15:40;;;;;;;1.20;1.20;;;17.50;99.90;;;;;;5048500;28;20433;-78
2021/05/24 06:18:06;;;;;;;0.93;0.60;;;18.00;99.90;;;;;;5046250;28;20467;-78
2021/05/24 06:20:32;;;;;;;0.50;0.40;;;18.50;99.90;;;;;;5050145;28;20444;-80
2021/05/24 06:22:58;;;;;;;0.50;0.33;;;19.60;99.90;;;;;;5048721;28;20448;-80
2021/05/24 06:25:25;;;;;;;0.50;0.40;;;20.60;99.90;;;;;;5044330;28;20439;-78
2021/05/24 06:27:52;;;;;;;0.50;0.40;;;21.40;99.90;;;;;;5048909;28;20437;-80
2021/05/24 06:30:20;;;;;;;0.50;0.40;;;21.50;97.50;;;;;;5054885;28;20983;-80
2021/05/24 06:32:46;;;;;;;0.50;0.40;;;21.70;95.90;;;;;;5055292;28;20480;-80
2021/05/24 06:35:12;;;;;;;0.60;0.40;;;22.10;94.60;;;;;;5055085;28;20434;-80
2021/05/24 06:37:38;;;;;;;0.50;0.40;;;23.10;91.20;;;;;;5053982;28;20552;-80
2021/05/24 06:40:06;;;;;;;0.50;0.40;;;23.30;88.70;;;;;;5051959;28;20602;-80
2021/05/24 06:42:33;;;;;;;0.50;0.40;;;23.20;87.30;;;;;;5049556;28;20494;-79
2021/05/24 06:44:59;;;;;;;0.50;0.40;;;23.00;85.60;;;;;;5050870;28;20452;-79
2021/05/24 06:47:26;;;;;;;0.50;0.30;;;21.90;86.30;;;;;;5048922;28;20454;-79
2021/05/24 06:49:53;;;;;;;0.50;0.30;;;21.40;87.50;;;;;;5049585;28;20464;-80
2021/05/24 06:52:19;;;;;;;0.50;0.30;;;21.20;91.20;;;;;;5049114;28;20496;-80
2021/05/24 06:54:46;;;;;;;0.50;0.40;;;20.60;90.40;;;;;;5048119;28;20853;-79
2021/05/24 06:57:12;;;;;;;0.50;0.40;;;19.60;92.40;;;;;;5049084;28;20441;-79
2021/05/24 06:59:38;;;;;;;0.50;0.40;;;19.10;97.40;;;;;;5049636;28;20782;-80
2021/05/24 07:02:05;;;;;;;0.50;0.40;;;18.60;97.60;;;;;;5048904;28;20430;-79
2021/05/24 07:04:32;;;;;;;0.60;0.40;;;18.10;99.90;;;;;;5048299;28;20448;-79
2021/05/24 07:06:58;;;;;;;1.17;1.13;;;17.80;99.90;;;;;;5048585;28;20444;-80
2021/05/24 07:09:25;;;;;;;1.53;1.23;;;17.80;99.90;;;;;;5047857;28;21009;-79
2021/05/24 07:11:52;;;;;;;0.50;0.40;;;17.80;99.90;;;;;;5048353;28;20469;-80
2021/05/24 07:14:18;;;;;;;0.50;0.40;;;17.80;99.90;;;;;;5047416;28;20940;-80
2021/05/24 07:16:44;;;;;;;0.67;0.67;;;17.60;99.90;;;;;;5048723;28;20439;-79
2021/05/24 07:19:10;;;;;;;0.50;0.30;;;17.70;99.90;;;;;;5048929;28;20469;-80
2021/05/24 07:21:37;;;;;;;0.60;0.40;;;17.80;99.90;;;;;;5048765;28;20437;-79
2021/05/24 07:24:04;;;;;;;0.50;0.40;;;17.80;99.90;;;;;;5047532;28;20468;-79
2021/05/24 07:26:31;;;;;;;0.50;0.40;;;17.90;99.90;;;;;;5047885;28;20476;-80
2021/05/24 07:28:57;;;;;;;0.50;0.30;;;17.80;99.90;;;;;;5048350;28;20874;-80
2021/05/24 07:31:23;;;;;;;0.60;0.50;;;17.90;99.90;;;;;;5048468;28;20491;-79
2021/05/24 07:33:49;;;;;;;0.50;0.30;;;18.10;99.90;;;;;;5047742;28;20498;-80
2021/05/24 07:36:15;;;;;;;0.57;0.37;;;18.20;99.90;;;;;;5047853;28;20862;-79
2021/05/24 07:38:42;;;;;;;0.50;0.30;;;18.30;99.90;;;;;;5047161;28;20478;-79
2021/05/24 07:41:09;;;;;;;0.50;0.40;;;18.40;99.90;;;;;;5046755;28;20545;-80
2021/05/24 07:43:36;;;;;;;0.50;0.40;;;18.20;99.90;;;;;;5048272;28;20436;-79
2021/05/24 07:46:02;;;;;;;0.50;0.30;;;18.50;99.90;;;;;;5047882;28;20447;-79
2021/05/24 07:48:29;;;;;;;0.50;0.30;;;18.30;99.90;;;;;;5046161;28;20462;-79
2021/05/24 07:50:55;;;;;;;0.50;0.30;;;18.10;99.90;;;;;;5046783;28;20511;-79
2021/05/24 07:53:21;;;;;;;0.60;0.60;;;18.10;99.90;;;;;;5047036;28;20445;-78
2021/05/24 07:55:48;;;;;;;0.50;0.40;;;18.10;99.90;;;;;;5048137;28;20438;-79
2021/05/24 07:58:15;;;;;;;0.50;0.37;;;18.10;99.90;;;;;;5044793;28;20466;-79
2021/05/24 08:00:41;;;;;;;0.50;0.30;;;18.20;99.90;;;;;;5047821;28;20450;-79
2021/05/24 08:03:07;;;;;;;0.50;0.30;;;18.60;99.90;;;;;;5048021;28;20438;-80
2021/05/24 08:05:33;;;;;;;0.50;0.40;;;18.80;99.90;;;;;;5047611;28;20441;-80
2021/05/24 08:07:59;;;;;;;0.50;0.40;;;18.90;99.90;;;;;;5046986;28;20467;-80
2021/05/24 08:10:26;;;;;;;1.27;0.60;;;18.40;99.90;;;;;;5046088;28;20458;-79
2021/05/24 08:12:53;;;;;;;0.50;0.40;;;18.10;99.90;;;;;;5046240;28;20470;-79
2021/05/24 08:15:29;;;;;;;0.50;0.40;;;17.90;99.90;;;;;;5047171;28;20443;-80
2021/05/24 08:17:56;;;;;;;0.60;0.40;;;17.60;99.90;;;;;;5045404;28;20446;-78
2021/05/24 08:20:22;;;;;;;0.50;0.40;;;17.40;99.90;;;;;;5045800;28;20461;-79
2021/05/24 08:22:49;;;;;;;0.50;0.40;;;17.20;99.90;;;;;;5045846;28;20437;-79
2021/05/24 08:25:15;;;;;;;5.93;0.77;;;17.00;99.90;;;;;;5045794;28;20473;-78
2021/05/24 08:27:41;;;;;;;0.50;0.40;;;16.90;99.90;;;;;;5045357;28;20438;-79
2021/05/24 08:30:10;;;;;;;0.80;0.50;;;16.70;99.90;;;;;;5045067;28;20437;-79
2021/05/24 08:32:37;;;;;;;0.50;0.40;;;16.80;99.90;;;;;;5044398;28;20565;-80
2021/05/24 08:35:03;;;;;;;0.50;0.40;;;16.70;99.90;;;;;;5046125;28;20515;-79
2021/05/24 08:37:30;;;;;;;0.50;0.40;;;16.60;99.90;;;;;;5046065;28;20441;-79
2021/05/24 08:39:56;;;;;;;0.50;0.50;;;16.70;99.90;;;;;;5042080;28;20534;-79
2021/05/24 08:42:25;;;;;;;0.50;0.40;;;16.70;99.90;;;;;;5043105;28;20434;-79
2021/05/24 08:44:52;;;;;;;0.50;0.40;;;16.70;99.90;;;;;;5041680;28;20942;-79
2021/05/24 08:47:22;;;;;;;0.50;0.40;;;16.70;99.90;;;;;;5041570;28;20454;-79
2021/05/24 08:49:48;;;;;;;0.50;0.37;;;16.70;99.90;;;;;;5041970;28;20466;-79
2021/05/24 08:52:15;;;;;;;0.50;0.40;;;16.70;99.90;;;;;;5043768;28;20625;-80
2021/05/24 08:54:41;;;;;;;0.50;0.40;;;16.70;99.90;;;;;;5043991;28;20442;-80
2021/05/24 08:57:07;;;;;;;0.70;0.70;;;16.80;99.90;;;;;;5045572;28;20453;-81
2021/05/24 08:59:34;;;;;;;0.50;0.40;;;16.80;99.90;;;;;;5047344;28;21057;-80
2021/05/24 09:02:00;;;;;;;0.50;0.50;;;16.90;99.90;;;;;;5047022;28;20447;-79
2021/05/24 09:04:40;;;;;;;0.50;0.40;;;17.00;99.90;;;;;;5047332;28;20438;-80
2021/05/24 09:07:07;;;;;;;0.50;0.40;;;17.10;99.90;;;;;;5044762;28;20450;-79
2021/05/24 09:09:35;;;;;;;0.50;0.30;;;17.00;99.90;;;;;;5045519;28;20552;-79
2021/05/24 09:12:04;;;;;;;0.50;0.30;;;17.00;99.90;;;;;;5044936;28;20479;-80
2021/05/24 09:14:32;;;;;;;0.50;0.33;;;17.20;99.90;;;;;;5046433;28;20446;-79
2021/05/24 09:16:59;;;;;;;1.20;0.77;;;17.30;99.90;;;;;;5045265;28;20468;-78
2021/05/24 09:19:27;;;;;;;0.50;0.40;;;17.30;99.90;;;;;;5047904;28;20462;-80
2021/05/24 09:21:57;;;;;;;0.50;0.47;;;17.30;99.90;;;;;;5047239;28;20629;-79
2021/05/24 09:24:27;;;;;;;0.90;0.70;;;17.30;99.90;;;;;;5048193;28;20426;-80
2021/05/24 09:26:54;;;;;;;0.50;0.40;;;17.30;99.90;;;;;;5047039;28;20854;-79
2021/05/24 09:29:23;;;;;;;0.50;0.40;;;17.20;99.90;;;;;;5047362;28;20470;-80
2021/05/24 09:32:09;;;;;;;0.50;0.30;;;17.20;99.90;;;;;;5046769;28;20474;-77
2021/05/24 09:34:35;;;;;;;0.50;0.40;;;17.30;99.90;;;;;;5047807;28;20442;-79
2021/05/24 09:37:02;;;;;;;0.50;0.40;;;17.40;99.90;;;;;;5047166;28;20443;-79
2021/05/24 09:39:30;;;;;;;0.50;0.40;;;17.50;99.90;;;;;;5045668;28;20467;-80
2021/05/24 09:42:00;;;;;;;0.60;0.60;;;17.60;99.90;;;;;;5046830;28;20461;-79
2021/05/24 09:44:28;;;;;;;0.50;0.40;;;17.40;99.90;;;;;;5047655;28;20447;-80
2021/05/24 09:46:55;;;;;;;0.50;0.30;;;17.60;99.90;;;;;;5046919;28;20473;-79
2021/05/24 09:49:23;;;;;;;0.60;0.50;;;17.60;99.90;;;;;;5046662;28;20474;-80
2021/05/24 09:51:51;;;;;;;0.60;0.50;;;17.70;99.90;;;;;;5046847;28;20474;-77
2021/05/24 09:54:22;;;;;;;0.50;0.40;;;17.80;99.90;;;;;;5046313;28;20422;-79
2021/05/24 09:56:48;;;;;;;0.50;0.30;;;17.80;99.90;;;;;;5047576;28;20441;-80
2021/05/24 09:59:16;;;;;;;0.87;0.50;;;17.80;99.90;;;;;;5046887;28;20468;-79
2021/05/24 10:01:45;;;;;;;0.50;0.40;;;17.70;99.90;;;;;;5046233;28;20443;-80
2021/05/24 10:04:13;;;;;;;0.50;0.30;;;17.40;99.90;;;;;;5046704;28;20452;-80
2021/05/24 10:06:40;;;;;;;0.90;0.50;;;17.20;99.90;;;;;;5046708;28;20431;-79
2021/05/24 10:09:08;;;;;;;0.50;0.40;;;17.00;99.90;;;;;;5046114;28;20466;-80
2021/05/24 10:11:36;;;;;;;0.50;0.40;;;16.70;99.90;;;;;;5046837;28;20550;-80
2021/05/24 10:14:03;;;;;;;0.50;0.37;;;16.60;99.90;;;;;;5046912;28;20448;-81
2021/05/24 10:16:32;;;;;;;0.50;0.40;;;16.50;99.90;;;;;;5047305;28;20437;-80
2021/05/24 10:18:59;;;;;;;0.70;0.60;;;16.30;99.90;;;;;;5046918;28;20458;-78
2021/05/24 10:21:25;;;;;;;0.50;0.40;;;16.10;99.90;;;;;;5047992;28;20437;-79
2021/05/24 10:23:54;;;;;;;0.50;0.40;;;15.90;99.90;;;;;;5050330;28;20438;-77
2021/05/24 10:26:21;;;;;;;0.60;0.50;;;15.70;99.90;;;;;;5049387;28;20485;-80
2021/05/24 10:28:49;;;;;;;0.50;0.40;;;15.60;99.90;;;;;;5048520;28;20496;-80
2021/05/24 10:31:21;;;;;;;0.60;0.50;;;15.30;99.90;;;;;;5047605;28;20473;-78
2021/05/24 10:33:48;;;;;;;0.50;0.40;;;15.10;99.90;;;;;;5047638;28;20444;-79
2021/05/24 10:36:20;;;;;;;0.50;0.40;;;15.00;99.90;;;;;;5047391;28;20487;-80
2021/05/24 10:39:11;;;;;;;1.13;0.40;;;15.00;99.90;;;;;;5048710;28;20464;-78
2021/05/24 10:41:59;;;;;;;0.60;0.57;;;14.80;99.90;;;;;;5040689;28;20426;-80
2021/05/24 10:44:37;;;;;;;0.70;0.60;;;14.70;99.90;;;;;;5039698;28;20442;-78
2021/05/24 10:47:24;;;;;;;0.80;0.80;;;14.50;99.90;;;;;;5047746;28;20187;-80
2021/05/24 10:50:03;;;;;;;0.50;0.40;;;14.30;99.90;;;;;;5047930;28;20292;-80
2021/05/24 10:52:31;;;;;;;0.50;0.30;;;14.30;99.90;;;;;;5048800;28;20215;-80
2021/05/24 10:54:57;;;;;;;0.50;0.40;;;14.20;99.90;;;;;;5045567;28;20450;-80
2021/05/24 10:57:24;;;;;;;0.50;0.33;;;14.10;99.90;;;;;;5047459;28;20434;-79
2021/05/24 10:59:59;;;;;;;0.50;0.40;;;14.10;99.90;;;;;;5047457;28;20470;-80
2021/05/24 11:02:34;;;;;;;0.50;0.40;;;14.10;99.90;;;;;;5047916;28;20472;-79
2021/05/24 11:05:07;;;;;;;0.50;0.40;;;14.00;99.90;;;;;;5046500;28;20441;-79
2021/05/24 11:07:34;;;;;;;0.50;0.40;;;13.90;99.90;;;;;;5046864;28;20257;-79
2021/05/24 11:10:19;;;;;;;0.50;0.40;;;13.90;99.90;;;;;;5045095;28;20462;-80
2021/05/24 11:12:46;;;;;;;0.50;0.40;;;13.90;99.90;;;;;;5014192;28;20554;-79
2021/05/24 11:15:15;;;;;;;0.50;0.40;;;13.90;99.90;;;;;;5027412;28;20206;-79
2021/05/24 11:18:28;;;;;;;0.50;0.40;;;13.90;99.90;;;;;;5027565;28;20210;-79
2021/05/24 11:21:00;;;;;;;0.50;0.40;;;13.90;99.90;;;;;;4979446;28;20252;-79
2021/05/24 11:23:33;;;;;;;0.50;0.40;;;14.00;99.90;;;;;;5026899;28;20318;-79
2021/05/24 11:26:28;;;;;;;0.50;0.40;;;14.00;99.90;;;;;;5025265;28;20645;-79
2021/05/24 11:28:58;;;;;;;0.50;0.40;;;13.90;99.90;;;;;;5025675;28;20216;-79
2021/05/24 11:31:29;;;;;;;0.50;0.40;;;13.90;99.90;;;;;;5027939;28;20220;-79
2021/05/24 11:33:57;;;;;;;0.50;0.40;;;13.90;99.90;;;;;;5027053;28;20227;-77
2021/05/24 11:36:51;;;;;;;0.50;0.30;;;13.90;99.90;;;;;;5027658;28;20192;-79
2021/05/24 11:39:20;;;;;;;0.50;0.40;;;13.90;99.90;;;;;;5052059;23;20854;-78
2021/05/24 11:41:52;;;;;;;0.50;0.40;;;13.90;99.90;;;;;;5023558;28;20192;-77
2021/05/24 11:44:19;;;;;;;0.50;0.40;;;13.90;99.90;;;;;;5017450;28;20477;-77
2021/05/24 11:46:47;;;;;;;0.50;0.40;;;13.90;99.90;;;;;;5015722;28;20214;-78
2021/05/24 11:49:15;;;;;;;0.50;0.40;;;14.00;99.90;;;;;;5015784;28;20297;-77
2021/05/24 11:51:44;;;;;;;0.50;0.40;;;13.90;99.90;;;;;;5015264;28;20479;-77
2021/05/24 11:54:12;;;;;;;0.50;0.40;;;13.90;99.90;;;;;;5015045;28;20226;-77
2021/05/24 11:56:42;;;;;;;0.93;0.93;;;13.90;99.90;;;;;;5014483;28;20206;-77
2021/05/24 11:59:11;;;;;;;0.50;0.40;;;13.90;99.90;;;;;;5014089;28;20282;-76
2021/05/24 12:01:40;;;;;;;0.80;0.60;;;13.90;99.90;;;;;;5013400;28;20291;-81
2021/05/24 12:04:09;;;;;;;1.17;0.55;;;13.80;99.90;;;;;;5013593;28;20438;-78
2021/05/24 12:06:44;;;;;;;0.50;0.40;;;13.70;99.90;;;;;;5013323;28;20281;-77
2021/05/24 12:09:11;;;;;;;0.60;0.50;;;13.60;99.90;;;;;;5020374;28;20268;-77
2021/05/24 12:11:53;;;;;;;1.25;0.70;;;13.40;99.90;;;;;;5025120;28;20477;-77
2021/05/24 12:14:20;;;;;;;0.50;0.40;;;13.20;99.90;;;;;;5032777;28;20191;-76
2021/05/24 12:16:46;;;;;;;1.40;1.30;;;13.10;99.90;;;;;;5032563;28;20192;-77
2021/05/24 12:19:19;;;;;;;0.50;0.40;;;13.00;99.90;;;;;;5032424;28;20230;-77
2021/05/24 12:21:47;;;;;;;0.50;0.40;;;13.00;99.90;;;;;;5034591;28;20195;-79
2021/05/24 12:24:13;;;;;;;0.50;0.40;;;12.90;99.90;;;;;;5032697;28;20191;-78
2021/05/24 12:26:49;;;;;;;0.50;0.40;;;12.90;99.90;;;;;;5032462;28;20195;-78
2021/05/24 12:29:21;;;;;;;0.50;0.40;;;13.00;99.90;;;;;;5032561;28;20630;-80
2021/05/24 12:31:49;;;;;;;0.50;0.40;;;13.00;99.90;;;;;;5032019;28;20217;-77
2021/05/24 12:34:20;;;;;;;0.50;0.40;;;13.10;99.90;;;;;;5032256;28;20195;-74
2021/05/24 12:36:53;;;;;;;0.50;0.40;;;13.10;99.90;;;;;;5032434;28;20183;-78
2021/05/24 12:39:20;;;;;;;0.50;0.40;;;13.10;99.90;;;;;;5031614;28;20226;-76
2021/05/24 12:41:49;;;;;;;0.50;0.40;;;13.30;99.90;;;;;;5023630;28;20191;-77
2021/05/24 12:44:21;;;;;;;0.50;0.40;;;13.30;99.90;;;;;;5031945;28;20295;-75
2021/05/24 12:46:48;;;;;;;0.60;0.40;;;13.30;99.90;;;;;;5031847;28;20251;-78
2021/05/24 12:49:15;;;;;;;1.98;1.20;;;13.40;99.90;;;;;;5031982;28;20215;-79
2021/05/24 12:51:42;;;;;;;0.50;0.40;;;13.20;99.90;;;;;;5032088;28;20211;-77